Terre Haute International Hulman Field
KHUF : now visible

Airfield :











YOU CAN JOIN US ON...

 
LOGIN :

Register | Disclaimer

   EN    FR    IT 

 









Legend :    VFR   Marginal VFR   IFR   Intensive IFR   Very Intensive IFR
Visi :
Ceiling :
>= 8 km
>= 3000ft
5 to 8 km
1000 to 3000 ft
1500m to 5 km
500 to 1000 ft
800 to 1500m
200 to 500 ft
< 800m
< 200 ft
Symbols :   Thunderstorms  Fog  Heavy snow  Heavy precipitations  Wind > 20 kt






- Airport Elevation : 589 ft
- IATA code : HUF


KHUF - Terre Haute International Hulman Field

CURRENT METAR :
  • 280820Z AUTO 00000KT 4SM BR OVC002 07/06 A3014 RMK AO2 RAB04E18 P0000 T00720061

EXPIRED METARs :
  • 280806Z AUTO 00000KT 2 1/2SM -RA BR OVC002 07/06 A3013 RMK AO2 RAB04 P0000 T00720061
  • 280753Z AUTO 33003KT 1 1/2SM BR OVC002 07/06 A3015 RMK AO2 SLP210 T00720061
  • 280709Z AUTO 33004KT 1 3/4SM BR OVC002 08/06 A3014 RMK AO2 T00780061
  • 280653Z AUTO 32003KT 4SM BR OVC002 07/06 A3014 RMK AO2 SLP208 T00720056
  • 280553Z AUTO 36003KT 4SM BR OVC003 08/06 A3015 RMK AO2 SLP211 60001 T00780061 10083 20078 56007

TAF KHUF
Valid from the 28 at 07:00 until the 29 at 06:00 UTC


280715Z 2807/2906 00000KT 2SM BR OVC004
TEMPO 2808/2810 OVC013
FM281000 00000KT P6SM BKN013
FM281400 00000KT P6SM BKN030
FM281600 VRB03KT P6SM SCT035
FM281800 VRB03KT P6SM BKN090
KZID FIR / North America



MET'MAP, your aeronautical weather chart ! - Copyright ORBIFLY December 2007 - Disclaimer

ORBIFLY MET'MAP TEAM :

Programming & Development : Alexandra Zaïnal
Concept & original design : Baudouin d'Aumeries
Assistance for programming : Marc-Olivier Méhu
Technical & hardware support : Manuel Goepfert

Contact : metmap@orbifly.com




SOURCES & CREDITS :

   NOAA       Earth
Advisory